sensor_id;sensor_type;location;lat;lon;timestamp;P1;durP1;ratioP1;P2;durP2;ratioP2
32934;SDS011;19292;51.532;7.650;2022-08-21T00:00:42;10.43;;;5.25;;
32934;SDS011;19292;51.532;7.650;2022-08-21T00:03:08;10.18;;;5.25;;
32934;SDS011;19292;51.532;7.650;2022-08-21T00:05:39;11.93;;;5.78;;
32934;SDS011;19292;51.532;7.650;2022-08-21T00:08:07;9.15;;;5.57;;
32934;SDS011;19292;51.532;7.650;2022-08-21T00:10:33;14.27;;;5.75;;
32934;SDS011;19292;51.532;7.650;2022-08-21T00:12:59;10.43;;;5.65;;
32934;SDS011;19292;51.532;7.650;2022-08-21T00:15:26;9.98;;;6.13;;
32934;SDS011;19292;51.532;7.650;2022-08-21T00:17:54;10.38;;;6.05;;
32934;SDS011;19292;51.532;7.650;2022-08-21T00:20:19;7.40;;;5.10;;
32934;SDS011;19292;51.532;7.650;2022-08-21T00:22:45;11.27;;;5.32;;
32934;SDS011;19292;51.532;7.650;2022-08-21T00:25:11;12.38;;;5.50;;
32934;SDS011;19292;51.532;7.650;2022-08-21T00:27:38;14.27;;;6.40;;
32934;SDS011;19292;51.532;7.650;2022-08-21T00:30:05;14.38;;;5.72;;
32934;SDS011;19292;51.532;7.650;2022-08-21T00:32:32;11.90;;;5.07;;
32934;SDS011;19292;51.532;7.650;2022-08-21T00:34:58;13.35;;;5.25;;
32934;SDS011;19292;51.532;7.650;2022-08-21T00:37:23;10.30;;;5.90;;
32934;SDS011;19292;51.532;7.650;2022-08-21T00:39:49;8.35;;;4.53;;
32934;SDS011;19292;51.532;7.650;2022-08-21T00:42:14;14.82;;;5.30;;
32934;SDS011;19292;51.532;7.650;2022-08-21T00:44:44;9.70;;;4.95;;
32934;SDS011;19292;51.532;7.650;2022-08-21T00:49:37;12.90;;;4.53;;
32934;SDS011;19292;51.532;7.650;2022-08-21T00:52:03;10.88;;;4.80;;
32934;SDS011;19292;51.532;7.650;2022-08-21T00:54:31;10.75;;;5.22;;
32934;SDS011;19292;51.532;7.650;2022-08-21T00:56:59;16.00;;;5.53;;
32934;SDS011;19292;51.532;7.650;2022-08-21T00:59:28;10.18;;;5.68;;
32934;SDS011;19292;51.532;7.650;2022-08-21T01:01:57;11.30;;;5.18;;
32934;SDS011;19292;51.532;7.650;2022-08-21T01:04:23;10.88;;;6.50;;
32934;SDS011;19292;51.532;7.650;2022-08-21T01:06:49;10.80;;;5.97;;
32934;SDS011;19292;51.532;7.650;2022-08-21T01:09:14;9.65;;;6.47;;
32934;SDS011;19292;51.532;7.650;2022-08-21T01:11:40;12.38;;;7.60;;
32934;SDS011;19292;51.532;7.650;2022-08-21T01:14:07;16.80;;;8.15;;
32934;SDS011;19292;51.532;7.650;2022-08-21T01:16:36;13.40;;;8.25;;
32934;SDS011;19292;51.532;7.650;2022-08-21T01:19:02;13.27;;;7.80;;
32934;SDS011;19292;51.532;7.650;2022-08-21T01:21:27;9.43;;;7.85;;
32934;SDS011;19292;51.532;7.650;2022-08-21T01:23:53;12.63;;;8.50;;
32934;SDS011;19292;51.532;7.650;2022-08-21T01:26:21;16.55;;;9.02;;
32934;SDS011;19292;51.532;7.650;2022-08-21T01:28:57;12.07;;;8.25;;
32934;SDS011;19292;51.532;7.650;2022-08-21T01:31:26;16.95;;;8.55;;
32934;SDS011;19292;51.532;7.650;2022-08-21T01:33:53;16.10;;;8.60;;
32934;SDS011;19292;51.532;7.650;2022-08-21T01:36:19;13.13;;;8.05;;
32934;SDS011;19292;51.532;7.650;2022-08-21T01:38:48;14.55;;;8.75;;
32934;SDS011;19292;51.532;7.650;2022-08-21T01:41:14;13.20;;;9.48;;
32934;SDS011;19292;51.532;7.650;2022-08-21T01:43:40;14.50;;;9.57;;
32934;SDS011;19292;51.532;7.650;2022-08-21T01:46:06;14.77;;;9.95;;
32934;SDS011;19292;51.532;7.650;2022-08-21T01:48:35;15.40;;;8.98;;
32934;SDS011;19292;51.532;7.650;2022-08-21T01:51:01;15.90;;;8.98;;
32934;SDS011;19292;51.532;7.650;2022-08-21T01:53:26;11.40;;;8.77;;
32934;SDS011;19292;51.532;7.650;2022-08-21T01:55:52;19.30;;;9.88;;
32934;SDS011;19292;51.532;7.650;2022-08-21T01:58:17;14.82;;;9.77;;
32934;SDS011;19292;51.532;7.650;2022-08-21T02:00:43;18.17;;;9.90;;
32934;SDS011;19292;51.532;7.650;2022-08-21T02:03:08;15.25;;;9.10;;
32934;SDS011;19292;51.532;7.650;2022-08-21T02:05:34;10.63;;;9.23;;
32934;SDS011;19292;51.532;7.650;2022-08-21T02:08:02;14.82;;;9.30;;
32934;SDS011;19292;51.532;7.650;2022-08-21T02:10:29;15.90;;;10.48;;
32934;SDS011;19292;51.532;7.650;2022-08-21T02:12:56;14.35;;;9.80;;
32934;SDS011;19292;51.532;7.650;2022-08-21T02:15:23;16.30;;;9.82;;
32934;SDS011;19292;51.532;7.650;2022-08-21T02:17:51;15.60;;;9.77;;
32934;SDS011;19292;51.532;7.650;2022-08-21T02:20:25;14.35;;;8.70;;
32934;SDS011;19292;51.532;7.650;2022-08-21T02:22:55;13.90;;;9.77;;
32934;SDS011;19292;51.532;7.650;2022-08-21T02:25:22;12.98;;;10.07;;
32934;SDS011;19292;51.532;7.650;2022-08-21T02:27:48;18.88;;;9.48;;
32934;SDS011;19292;51.532;7.650;2022-08-21T02:30:16;16.65;;;10.38;;
32934;SDS011;19292;51.532;7.650;2022-08-21T02:32:44;15.15;;;9.40;;
32934;SDS011;19292;51.532;7.650;2022-08-21T02:35:10;18.85;;;10.43;;
32934;SDS011;19292;51.532;7.650;2022-08-21T02:37:49;13.73;;;9.90;;
32934;SDS011;19292;51.532;7.650;2022-08-21T02:40:18;11.20;;;9.43;;
32934;SDS011;19292;51.532;7.650;2022-08-21T02:42:46;17.17;;;10.88;;
32934;SDS011;19292;51.532;7.650;2022-08-21T02:45:12;13.30;;;10.02;;
32934;SDS011;19292;51.532;7.650;2022-08-21T02:47:38;19.67;;;10.38;;
32934;SDS011;19292;51.532;7.650;2022-08-21T02:50:04;20.42;;;10.52;;
32934;SDS011;19292;51.532;7.650;2022-08-21T02:52:31;14.85;;;10.27;;
32934;SDS011;19292;51.532;7.650;2022-08-21T02:54:58;14.73;;;10.10;;
32934;SDS011;19292;51.532;7.650;2022-08-21T02:57:23;13.05;;;9.82;;
32934;SDS011;19292;51.532;7.650;2022-08-21T02:59:49;16.73;;;9.52;;
32934;SDS011;19292;51.532;7.650;2022-08-21T03:02:14;16.38;;;10.65;;
32934;SDS011;19292;51.532;7.650;2022-08-21T03:04:39;12.68;;;9.75;;
32934;SDS011;19292;51.532;7.650;2022-08-21T03:07:05;14.50;;;9.57;;
32934;SDS011;19292;51.532;7.650;2022-08-21T03:09:30;14.13;;;10.73;;
32934;SDS011;19292;51.532;7.650;2022-08-21T03:11:55;19.67;;;10.38;;
32934;SDS011;19292;51.532;7.650;2022-08-21T03:14:21;19.17;;;11.15;;
32934;SDS011;19292;51.532;7.650;2022-08-21T03:16:46;18.05;;;11.15;;
32934;SDS011;19292;51.532;7.650;2022-08-21T03:19:11;17.33;;;11.48;;
32934;SDS011;19292;51.532;7.650;2022-08-21T03:21:38;15.73;;;10.60;;
32934;SDS011;19292;51.532;7.650;2022-08-21T03:24:03;18.90;;;11.27;;
32934;SDS011;19292;51.532;7.650;2022-08-21T03:26:29;15.73;;;10.85;;
32934;SDS011;19292;51.532;7.650;2022-08-21T03:28:55;20.02;;;10.98;;
32934;SDS011;19292;51.532;7.650;2022-08-21T03:31:22;16.13;;;11.15;;
32934;SDS011;19292;51.532;7.650;2022-08-21T03:33:48;22.55;;;12.02;;
32934;SDS011;19292;51.532;7.650;2022-08-21T03:36:13;17.58;;;11.50;;
32934;SDS011;19292;51.532;7.650;2022-08-21T03:38:40;14.00;;;10.75;;
32934;SDS011;19292;51.532;7.650;2022-08-21T03:41:06;22.98;;;11.30;;
32934;SDS011;19292;51.532;7.650;2022-08-21T03:43:32;14.25;;;10.85;;
32934;SDS011;19292;51.532;7.650;2022-08-21T03:45:58;17.27;;;11.93;;
32934;SDS011;19292;51.532;7.650;2022-08-21T03:48:23;13.43;;;10.45;;
32934;SDS011;19292;51.532;7.650;2022-08-21T03:50:51;14.07;;;10.63;;
32934;SDS011;19292;51.532;7.650;2022-08-21T03:53:17;15.20;;;10.77;;
32934;SDS011;19292;51.532;7.650;2022-08-21T03:55:47;20.23;;;11.52;;
32934;SDS011;19292;51.532;7.650;2022-08-21T03:58:14;17.08;;;10.88;;
32934;SDS011;19292;51.532;7.650;2022-08-21T04:00:41;19.98;;;10.05;;
32934;SDS011;19292;51.532;7.650;2022-08-21T04:03:07;16.05;;;10.65;;
32934;SDS011;19292;51.532;7.650;2022-08-21T04:05:33;16.40;;;10.88;;
32934;SDS011;19292;51.532;7.650;2022-08-21T04:07:59;12.32;;;9.75;;
32934;SDS011;19292;51.532;7.650;2022-08-21T04:10:27;15.15;;;10.70;;
32934;SDS011;19292;51.532;7.650;2022-08-21T04:12:53;15.10;;;10.98;;
32934;SDS011;19292;51.532;7.650;2022-08-21T04:15:19;17.05;;;10.18;;
32934;SDS011;19292;51.532;7.650;2022-08-21T04:17:45;18.60;;;11.27;;
32934;SDS011;19292;51.532;7.650;2022-08-21T04:20:11;14.25;;;10.90;;
32934;SDS011;19292;51.532;7.650;2022-08-21T04:22:37;20.42;;;11.45;;
32934;SDS011;19292;51.532;7.650;2022-08-21T04:25:03;16.48;;;10.60;;
32934;SDS011;19292;51.532;7.650;2022-08-21T04:27:29;15.10;;;10.32;;
32934;SDS011;19292;51.532;7.650;2022-08-21T04:29:55;18.92;;;11.75;;
32934;SDS011;19292;51.532;7.650;2022-08-21T04:32:23;19.33;;;11.38;;
32934;SDS011;19292;51.532;7.650;2022-08-21T04:34:49;17.83;;;10.45;;
32934;SDS011;19292;51.532;7.650;2022-08-21T04:37:14;22.33;;;11.27;;
32934;SDS011;19292;51.532;7.650;2022-08-21T04:39:40;20.33;;;11.38;;
32934;SDS011;19292;51.532;7.650;2022-08-21T04:42:06;14.70;;;11.70;;
32934;SDS011;19292;51.532;7.650;2022-08-21T04:44:32;16.23;;;10.73;;
32934;SDS011;19292;51.532;7.650;2022-08-21T04:46:58;16.58;;;10.43;;
32934;SDS011;19292;51.532;7.650;2022-08-21T04:49:23;19.27;;;11.60;;
32934;SDS011;19292;51.532;7.650;2022-08-21T04:51:48;19.75;;;11.07;;
32934;SDS011;19292;51.532;7.650;2022-08-21T04:54:17;14.07;;;10.77;;
32934;SDS011;19292;51.532;7.650;2022-08-21T04:56:45;17.83;;;11.63;;
32934;SDS011;19292;51.532;7.650;2022-08-21T04:59:17;15.43;;;11.65;;
32934;SDS011;19292;51.532;7.650;2022-08-21T05:01:44;13.73;;;11.18;;
32934;SDS011;19292;51.532;7.650;2022-08-21T05:04:11;15.93;;;11.20;;
32934;SDS011;19292;51.532;7.650;2022-08-21T05:06:38;16.10;;;11.05;;
32934;SDS011;19292;51.532;7.650;2022-08-21T05:09:04;17.13;;;10.52;;
32934;SDS011;19292;51.532;7.650;2022-08-21T05:11:30;16.52;;;13.35;;
32934;SDS011;19292;51.532;7.650;2022-08-21T05:13:56;23.08;;;12.07;;
32934;SDS011;19292;51.532;7.650;2022-08-21T05:16:22;18.60;;;11.00;;
32934;SDS011;19292;51.532;7.650;2022-08-21T05:18:47;15.23;;;11.07;;
32934;SDS011;19292;51.532;7.650;2022-08-21T05:21:12;16.98;;;11.10;;
32934;SDS011;19292;51.532;7.650;2022-08-21T05:23:38;13.13;;;10.63;;
32934;SDS011;19292;51.532;7.650;2022-08-21T05:26:03;20.30;;;10.75;;
32934;SDS011;19292;51.532;7.650;2022-08-21T05:28:29;15.10;;;10.13;;
32934;SDS011;19292;51.532;7.650;2022-08-21T05:30:55;15.55;;;11.55;;
32934;SDS011;19292;51.532;7.650;2022-08-21T05:33:20;20.45;;;11.02;;
32934;SDS011;19292;51.532;7.650;2022-08-21T05:35:48;16.13;;;10.15;;
32934;SDS011;19292;51.532;7.650;2022-08-21T05:38:15;17.58;;;9.27;;
32934;SDS011;19292;51.532;7.650;2022-08-21T05:40:40;16.20;;;10.40;;
32934;SDS011;19292;51.532;7.650;2022-08-21T05:43:06;13.85;;;10.10;;
32934;SDS011;19292;51.532;7.650;2022-08-21T05:45:32;12.05;;;10.30;;
32934;SDS011;19292;51.532;7.650;2022-08-21T05:47:57;14.63;;;13.23;;
32934;SDS011;19292;51.532;7.650;2022-08-21T05:50:23;15.80;;;9.85;;
32934;SDS011;19292;51.532;7.650;2022-08-21T05:52:49;16.52;;;10.65;;
32934;SDS011;19292;51.532;7.650;2022-08-21T05:55:14;15.45;;;10.90;;
32934;SDS011;19292;51.532;7.650;2022-08-21T05:57:39;15.68;;;10.23;;
32934;SDS011;19292;51.532;7.650;2022-08-21T06:00:08;15.75;;;10.10;;
32934;SDS011;19292;51.532;7.650;2022-08-21T06:02:37;12.90;;;9.80;;
32934;SDS011;19292;51.532;7.650;2022-08-21T06:05:03;17.80;;;9.88;;
32934;SDS011;19292;51.532;7.650;2022-08-21T06:07:29;13.43;;;9.65;;
32934;SDS011;19292;51.532;7.650;2022-08-21T06:09:54;14.05;;;9.88;;
32934;SDS011;19292;51.532;7.650;2022-08-21T06:12:19;17.63;;;10.10;;
32934;SDS011;19292;51.532;7.650;2022-08-21T06:14:45;15.90;;;8.73;;
32934;SDS011;19292;51.532;7.650;2022-08-21T06:17:11;12.98;;;9.05;;
32934;SDS011;19292;51.532;7.650;2022-08-21T06:19:37;13.43;;;8.90;;
32934;SDS011;19292;51.532;7.650;2022-08-21T06:22:03;15.43;;;9.40;;
32934;SDS011;19292;51.532;7.650;2022-08-21T06:24:29;15.07;;;8.90;;
32934;SDS011;19292;51.532;7.650;2022-08-21T06:26:54;11.35;;;7.90;;
32934;SDS011;19292;51.532;7.650;2022-08-21T06:29:20;13.43;;;8.18;;
32934;SDS011;19292;51.532;7.650;2022-08-21T06:31:46;13.02;;;8.05;;
32934;SDS011;19292;51.532;7.650;2022-08-21T06:34:12;12.80;;;7.75;;
32934;SDS011;19292;51.532;7.650;2022-08-21T06:36:38;12.18;;;7.45;;
32934;SDS011;19292;51.532;7.650;2022-08-21T06:39:03;14.20;;;8.57;;
32934;SDS011;19292;51.532;7.650;2022-08-21T06:41:29;13.75;;;7.78;;
32934;SDS011;19292;51.532;7.650;2022-08-21T06:43:55;21.15;;;8.43;;
32934;SDS011;19292;51.532;7.650;2022-08-21T06:46:22;12.05;;;8.30;;
32934;SDS011;19292;51.532;7.650;2022-08-21T06:48:48;10.23;;;7.60;;
32934;SDS011;19292;51.532;7.650;2022-08-21T06:51:14;14.10;;;6.93;;
32934;SDS011;19292;51.532;7.650;2022-08-21T06:53:39;12.23;;;7.63;;
32934;SDS011;19292;51.532;7.650;2022-08-21T06:56:05;14.10;;;7.60;;
32934;SDS011;19292;51.532;7.650;2022-08-21T06:58:30;13.10;;;7.53;;
32934;SDS011;19292;51.532;7.650;2022-08-21T07:00:56;10.38;;;7.15;;
32934;SDS011;19292;51.532;7.650;2022-08-21T07:05:49;16.70;;;7.13;;
32934;SDS011;19292;51.532;7.650;2022-08-21T07:08:15;12.10;;;6.60;;
32934;SDS011;19292;51.532;7.650;2022-08-21T07:10:41;12.30;;;7.63;;
32934;SDS011;19292;51.532;7.650;2022-08-21T07:13:07;19.27;;;7.78;;
32934;SDS011;19292;51.532;7.650;2022-08-21T07:15:32;14.05;;;7.18;;
32934;SDS011;19292;51.532;7.650;2022-08-21T07:17:58;11.43;;;6.50;;
32934;SDS011;19292;51.532;7.650;2022-08-21T07:20:24;12.43;;;6.80;;
32934;SDS011;19292;51.532;7.650;2022-08-21T07:22:49;12.60;;;6.80;;
32934;SDS011;19292;51.532;7.650;2022-08-21T07:25:15;17.73;;;7.57;;
32934;SDS011;19292;51.532;7.650;2022-08-21T07:27:41;14.32;;;6.97;;
32934;SDS011;19292;51.532;7.650;2022-08-21T07:30:06;13.35;;;6.95;;
32934;SDS011;19292;51.532;7.650;2022-08-21T07:32:32;10.48;;;7.00;;
32934;SDS011;19292;51.532;7.650;2022-08-21T07:34:57;8.98;;;6.40;;
32934;SDS011;19292;51.532;7.650;2022-08-21T07:37:23;15.27;;;7.75;;
32934;SDS011;19292;51.532;7.650;2022-08-21T07:39:48;14.55;;;6.70;;
32934;SDS011;19292;51.532;7.650;2022-08-21T07:42:14;10.68;;;6.78;;
32934;SDS011;19292;51.532;7.650;2022-08-21T07:44:40;9.82;;;6.80;;
32934;SDS011;19292;51.532;7.650;2022-08-21T07:47:05;13.20;;;7.07;;
32934;SDS011;19292;51.532;7.650;2022-08-21T07:49:31;10.27;;;7.10;;
32934;SDS011;19292;51.532;7.650;2022-08-21T07:51:56;10.85;;;6.20;;
32934;SDS011;19292;51.532;7.650;2022-08-21T07:54:22;12.13;;;7.05;;
32934;SDS011;19292;51.532;7.650;2022-08-21T07:56:48;9.85;;;6.18;;
32934;SDS011;19292;51.532;7.650;2022-08-21T07:59:13;10.02;;;6.63;;
32934;SDS011;19292;51.532;7.650;2022-08-21T08:01:39;10.35;;;6.35;;
32934;SDS011;19292;51.532;7.650;2022-08-21T08:04:04;12.48;;;6.82;;
32934;SDS011;19292;51.532;7.650;2022-08-21T08:06:30;10.52;;;6.35;;
32934;SDS011;19292;51.532;7.650;2022-08-21T08:08:55;12.63;;;6.78;;
32934;SDS011;19292;51.532;7.650;2022-08-21T08:11:21;12.20;;;6.68;;
32934;SDS011;19292;51.532;7.650;2022-08-21T08:13:48;12.05;;;6.90;;
32934;SDS011;19292;51.532;7.650;2022-08-21T08:16:15;10.50;;;6.45;;
32934;SDS011;19292;51.532;7.650;2022-08-21T08:18:41;15.55;;;6.40;;
32934;SDS011;19292;51.532;7.650;2022-08-21T08:21:07;14.68;;;6.00;;
32934;SDS011;19292;51.532;7.650;2022-08-21T08:23:33;9.10;;;4.57;;
32934;SDS011;19292;51.532;7.650;2022-08-21T08:25:59;13.55;;;5.75;;
32934;SDS011;19292;51.532;7.650;2022-08-21T08:28:24;12.18;;;5.65;;
32934;SDS011;19292;51.532;7.650;2022-08-21T08:30:57;10.18;;;4.82;;
32934;SDS011;19292;51.532;7.650;2022-08-21T08:33:25;11.23;;;5.65;;
32934;SDS011;19292;51.532;7.650;2022-08-21T08:35:50;14.65;;;5.57;;
32934;SDS011;19292;51.532;7.650;2022-08-21T08:38:17;9.07;;;4.57;;
32934;SDS011;19292;51.532;7.650;2022-08-21T08:43:31;11.55;;;5.18;;
32934;SDS011;19292;51.532;7.650;2022-08-21T08:45:58;9.30;;;4.60;;
32934;SDS011;19292;51.532;7.650;2022-08-21T08:48:47;12.55;;;4.75;;
32934;SDS011;19292;51.532;7.650;2022-08-21T08:51:22;13.25;;;5.35;;
32934;SDS011;19292;51.532;7.650;2022-08-21T08:53:55;9.40;;;4.25;;
32934;SDS011;19292;51.532;7.650;2022-08-21T08:56:29;9.75;;;4.63;;
32934;SDS011;19292;51.532;7.650;2022-08-21T08:58:59;11.20;;;5.45;;
32934;SDS011;19292;51.532;7.650;2022-08-21T09:01:27;15.68;;;6.13;;
32934;SDS011;19292;51.532;7.650;2022-08-21T09:03:52;10.50;;;4.82;;
32934;SDS011;19292;51.532;7.650;2022-08-21T09:06:37;12.65;;;4.70;;
32934;SDS011;19292;51.532;7.650;2022-08-21T09:26:14;8.20;;;4.53;;
32934;SDS011;19292;51.532;7.650;2022-08-21T09:28:43;11.57;;;4.88;;
32934;SDS011;19292;51.532;7.650;2022-08-21T09:31:33;12.10;;;4.63;;
32934;SDS011;19292;51.532;7.650;2022-08-21T09:34:08;6.85;;;3.45;;
32934;SDS011;19292;51.532;7.650;2022-08-21T09:36:40;6.97;;;3.35;;
32934;SDS011;19292;51.532;7.650;2022-08-21T09:39:08;9.95;;;4.00;;
32934;SDS011;19292;51.532;7.650;2022-08-21T09:41:36;7.35;;;3.15;;
32934;SDS011;19292;51.532;7.650;2022-08-21T09:44:05;8.85;;;3.47;;
32934;SDS011;19292;51.532;7.650;2022-08-21T09:46:31;8.10;;;3.05;;
32934;SDS011;19292;51.532;7.650;2022-08-21T09:48:58;8.63;;;3.20;;
32934;SDS011;19292;51.532;7.650;2022-08-21T09:51:27;5.22;;;2.53;;
32934;SDS011;19292;51.532;7.650;2022-08-21T09:56:36;10.38;;;3.35;;
32934;SDS011;19292;51.532;7.650;2022-08-21T09:59:27;8.73;;;3.08;;
32934;SDS011;19292;51.532;7.650;2022-08-21T10:01:58;9.20;;;2.80;;
32934;SDS011;19292;51.532;7.650;2022-08-21T10:04:35;10.52;;;3.20;;
32934;SDS011;19292;51.532;7.650;2022-08-21T10:07:08;8.05;;;3.28;;
32934;SDS011;19292;51.532;7.650;2022-08-21T10:09:35;8.02;;;3.17;;
32934;SDS011;19292;51.532;7.650;2022-08-21T10:14:50;9.80;;;3.10;;
32934;SDS011;19292;51.532;7.650;2022-08-21T10:25:18;8.13;;;2.72;;
32934;SDS011;19292;51.532;7.650;2022-08-21T10:36:58;8.15;;;3.40;;
32934;SDS011;19292;51.532;7.650;2022-08-21T10:39:35;8.07;;;2.83;;
32934;SDS011;19292;51.532;7.650;2022-08-21T10:44:42;7.53;;;2.47;;
32934;SDS011;19292;51.532;7.650;2022-08-21T10:47:46;5.45;;;2.25;;
32934;SDS011;19292;51.532;7.650;2022-08-21T10:53:03;6.97;;;2.83;;
32934;SDS011;19292;51.532;7.650;2022-08-21T10:55:39;11.07;;;3.17;;
32934;SDS011;19292;51.532;7.650;2022-08-21T10:58:10;8.70;;;2.70;;
32934;SDS011;19292;51.532;7.650;2022-08-21T11:00:50;5.95;;;2.30;;
32934;SDS011;19292;51.532;7.650;2022-08-21T11:06:04;8.48;;;2.80;;
32934;SDS011;19292;51.532;7.650;2022-08-21T11:08:38;6.30;;;2.85;;
32934;SDS011;19292;51.532;7.650;2022-08-21T11:11:08;5.75;;;2.60;;
32934;SDS011;19292;51.532;7.650;2022-08-21T11:13:39;6.38;;;2.03;;
32934;SDS011;19292;51.532;7.650;2022-08-21T11:16:13;6.47;;;2.05;;
32934;SDS011;19292;51.532;7.650;2022-08-21T11:18:41;6.63;;;2.65;;
32934;SDS011;19292;51.532;7.650;2022-08-21T11:23:38;7.27;;;2.43;;
32934;SDS011;19292;51.532;7.650;2022-08-21T11:26:09;7.55;;;2.67;;
32934;SDS011;19292;51.532;7.650;2022-08-21T11:28:43;9.60;;;2.63;;
32934;SDS011;19292;51.532;7.650;2022-08-21T11:31:17;5.60;;;2.25;;
32934;SDS011;19292;51.532;7.650;2022-08-21T11:36:51;5.57;;;2.28;;
32934;SDS011;19292;51.532;7.650;2022-08-21T11:42:19;5.93;;;2.20;;
32934;SDS011;19292;51.532;7.650;2022-08-21T11:45:12;6.35;;;3.13;;
32934;SDS011;19292;51.532;7.650;2022-08-21T11:50:59;9.35;;;7.05;;
32934;SDS011;19292;51.532;7.650;2022-08-21T11:53:31;6.85;;;4.18;;
32934;SDS011;19292;51.532;7.650;2022-08-21T11:58:39;8.00;;;7.32;;
32934;SDS011;19292;51.532;7.650;2022-08-21T12:01:22;31.38;;;29.75;;
32934;SDS011;19292;51.532;7.650;2022-08-21T12:03:56;26.10;;;24.58;;
32934;SDS011;19292;51.532;7.650;2022-08-21T12:06:28;29.67;;;27.98;;
32934;SDS011;19292;51.532;7.650;2022-08-21T12:09:00;34.50;;;32.40;;
32934;SDS011;19292;51.532;7.650;2022-08-21T12:11:45;34.28;;;32.40;;
32934;SDS011;19292;51.532;7.650;2022-08-21T12:14:14;33.10;;;31.25;;
32934;SDS011;19292;51.532;7.650;2022-08-21T12:16:43;33.85;;;31.98;;
32934;SDS011;19292;51.532;7.650;2022-08-21T12:24:30;43.97;;;41.58;;
32934;SDS011;19292;51.532;7.650;2022-08-21T12:27:13;46.17;;;43.72;;
32934;SDS011;19292;51.532;7.650;2022-08-21T12:29:59;39.53;;;37.13;;
32934;SDS011;19292;51.532;7.650;2022-08-21T12:32:30;34.67;;;32.80;;
32934;SDS011;19292;51.532;7.650;2022-08-21T12:35:21;33.58;;;31.67;;
32934;SDS011;19292;51.532;7.650;2022-08-21T12:37:57;46.13;;;43.77;;
32934;SDS011;19292;51.532;7.650;2022-08-21T12:40:26;33.20;;;31.30;;
32934;SDS011;19292;51.532;7.650;2022-08-21T12:43:06;43.60;;;41.35;;
32934;SDS011;19292;51.532;7.650;2022-08-21T12:45:40;45.22;;;42.88;;
32934;SDS011;19292;51.532;7.650;2022-08-21T12:48:15;41.80;;;39.28;;
32934;SDS011;19292;51.532;7.650;2022-08-21T12:50:53;45.28;;;43.03;;
32934;SDS011;19292;51.532;7.650;2022-08-21T12:55:53;44.13;;;41.88;;
32934;SDS011;19292;51.532;7.650;2022-08-21T12:58:24;43.95;;;41.72;;
32934;SDS011;19292;51.532;7.650;2022-08-21T13:00:52;39.08;;;37.13;;
32934;SDS011;19292;51.532;7.650;2022-08-21T13:03:22;47.07;;;44.67;;
32934;SDS011;19292;51.532;7.650;2022-08-21T13:05:48;33.92;;;32.17;;
32934;SDS011;19292;51.532;7.650;2022-08-21T13:08:16;42.17;;;40.10;;
32934;SDS011;19292;51.532;7.650;2022-08-21T13:10:44;30.67;;;29.00;;
32934;SDS011;19292;51.532;7.650;2022-08-21T13:13:20;30.00;;;28.33;;
32934;SDS011;19292;51.532;7.650;2022-08-21T13:15:46;26.40;;;25.00;;
32934;SDS011;19292;51.532;7.650;2022-08-21T13:18:22;13.75;;;12.95;;
32934;SDS011;19292;51.532;7.650;2022-08-21T13:20:49;13.68;;;12.88;;
32934;SDS011;19292;51.532;7.650;2022-08-21T13:25:49;13.90;;;12.98;;
32934;SDS011;19292;51.532;7.650;2022-08-21T13:28:14;16.63;;;15.52;;
32934;SDS011;19292;51.532;7.650;2022-08-21T13:30:44;15.30;;;14.43;;
32934;SDS011;19292;51.532;7.650;2022-08-21T13:33:12;12.95;;;12.25;;
32934;SDS011;19292;51.532;7.650;2022-08-21T13:35:50;10.32;;;9.52;;
32934;SDS011;19292;51.532;7.650;2022-08-21T13:38:24;10.27;;;9.30;;
32934;SDS011;19292;51.532;7.650;2022-08-21T13:40:59;10.82;;;10.23;;
32934;SDS011;19292;51.532;7.650;2022-08-21T13:43:30;8.30;;;7.47;;
32934;SDS011;19292;51.532;7.650;2022-08-21T13:45:57;7.10;;;6.50;;
32934;SDS011;19292;51.532;7.650;2022-08-21T13:48:24;8.45;;;7.78;;
32934;SDS011;19292;51.532;7.650;2022-08-21T13:50:51;7.10;;;6.60;;
32934;SDS011;19292;51.532;7.650;2022-08-21T13:55:53;8.52;;;4.03;;
32934;SDS011;19292;51.532;7.650;2022-08-21T13:58:31;5.82;;;4.93;;
32934;SDS011;19292;51.532;7.650;2022-08-21T14:00:59;5.55;;;5.15;;
32934;SDS011;19292;51.532;7.650;2022-08-21T14:05:57;4.78;;;4.45;;
32934;SDS011;19292;51.532;7.650;2022-08-21T14:08:25;4.65;;;4.25;;
32934;SDS011;19292;51.532;7.650;2022-08-21T14:10:57;5.28;;;4.53;;
32934;SDS011;19292;51.532;7.650;2022-08-21T14:13:44;5.78;;;5.30;;
32934;SDS011;19292;51.532;7.650;2022-08-21T14:16:10;6.30;;;5.90;;
32934;SDS011;19292;51.532;7.650;2022-08-21T14:18:43;5.75;;;5.35;;
32934;SDS011;19292;51.532;7.650;2022-08-21T14:24:05;5.38;;;4.53;;
32934;SDS011;19292;51.532;7.650;2022-08-21T14:26:37;4.78;;;4.22;;
32934;SDS011;19292;51.532;7.650;2022-08-21T14:29:09;6.13;;;5.63;;
32934;SDS011;19292;51.532;7.650;2022-08-21T14:31:37;5.97;;;4.60;;
32934;SDS011;19292;51.532;7.650;2022-08-21T14:34:02;6.25;;;5.43;;
32934;SDS011;19292;51.532;7.650;2022-08-21T14:36:27;6.15;;;5.55;;
32934;SDS011;19292;51.532;7.650;2022-08-21T14:38:53;8.02;;;5.90;;
32934;SDS011;19292;51.532;7.650;2022-08-21T14:41:19;5.43;;;5.03;;
32934;SDS011;19292;51.532;7.650;2022-08-21T14:43:48;4.97;;;4.55;;
32934;SDS011;19292;51.532;7.650;2022-08-21T14:46:23;5.88;;;5.45;;
32934;SDS011;19292;51.532;7.650;2022-08-21T14:48:51;5.72;;;5.32;;
32934;SDS011;19292;51.532;7.650;2022-08-21T14:51:16;4.55;;;4.18;;
32934;SDS011;19292;51.532;7.650;2022-08-21T14:53:42;5.55;;;5.13;;
32934;SDS011;19292;51.532;7.650;2022-08-21T14:56:08;5.65;;;5.15;;
32934;SDS011;19292;51.532;7.650;2022-08-21T14:58:38;6.05;;;4.00;;
32934;SDS011;19292;51.532;7.650;2022-08-21T15:01:09;5.32;;;4.93;;
32934;SDS011;19292;51.532;7.650;2022-08-21T15:03:39;6.53;;;5.93;;
32934;SDS011;19292;51.532;7.650;2022-08-21T15:06:05;5.03;;;4.53;;
32934;SDS011;19292;51.532;7.650;2022-08-21T15:08:31;5.05;;;4.57;;
32934;SDS011;19292;51.532;7.650;2022-08-21T15:10:57;4.25;;;3.90;;
32934;SDS011;19292;51.532;7.650;2022-08-21T15:13:23;7.85;;;5.78;;
32934;SDS011;19292;51.532;7.650;2022-08-21T15:15:49;7.00;;;6.50;;
32934;SDS011;19292;51.532;7.650;2022-08-21T15:18:17;7.45;;;6.80;;
32934;SDS011;19292;51.532;7.650;2022-08-21T15:20:43;7.57;;;6.88;;
32934;SDS011;19292;51.532;7.650;2022-08-21T15:23:09;7.95;;;7.32;;
32934;SDS011;19292;51.532;7.650;2022-08-21T15:25:34;7.70;;;7.10;;
32934;SDS011;19292;51.532;7.650;2022-08-21T15:28:01;7.47;;;6.97;;
32934;SDS011;19292;51.532;7.650;2022-08-21T15:30:27;8.75;;;8.02;;
32934;SDS011;19292;51.532;7.650;2022-08-21T15:32:55;6.43;;;5.93;;
32934;SDS011;19292;51.532;7.650;2022-08-21T15:35:20;7.93;;;7.30;;
32934;SDS011;19292;51.532;7.650;2022-08-21T15:37:45;7.22;;;6.68;;
32934;SDS011;19292;51.532;7.650;2022-08-21T15:40:11;8.48;;;7.78;;
32934;SDS011;19292;51.532;7.650;2022-08-21T15:42:38;7.22;;;6.63;;
32934;SDS011;19292;51.532;7.650;2022-08-21T15:45:05;6.10;;;5.63;;
32934;SDS011;19292;51.532;7.650;2022-08-21T15:47:32;6.65;;;6.15;;
32934;SDS011;19292;51.532;7.650;2022-08-21T15:49:59;5.65;;;5.03;;
32934;SDS011;19292;51.532;7.650;2022-08-21T15:52:24;5.93;;;5.57;;
32934;SDS011;19292;51.532;7.650;2022-08-21T15:54:50;8.10;;;7.53;;
32934;SDS011;19292;51.532;7.650;2022-08-21T15:57:17;7.28;;;6.68;;
32934;SDS011;19292;51.532;7.650;2022-08-21T15:59:45;8.43;;;7.93;;
32934;SDS011;19292;51.532;7.650;2022-08-21T16:02:15;7.68;;;7.18;;
32934;SDS011;19292;51.532;7.650;2022-08-21T16:04:43;7.97;;;7.50;;
32934;SDS011;19292;51.532;7.650;2022-08-21T16:07:08;8.65;;;8.07;;